sensor_id;sensor_type;location;lat;lon;timestamp;pressure;altitude;pressure_sealevel;temperature;humidity
14041;BME280;7095;51.388;6.196;2023-01-25T00:01:55;55153.56;;;-145.32;100.00
14041;BME280;7095;51.388;6.196;2023-01-25T00:04:24;55153.56;;;-145.32;100.00
14041;BME280;7095;51.388;6.196;2023-01-25T00:06:53;55129.69;;;-145.32;100.00
14041;BME280;7095;51.388;6.196;2023-01-25T00:09:22;55151.59;;;-145.32;100.00
14041;BME280;7095;51.388;6.196;2023-01-25T00:11:52;55185.41;;;-145.32;100.00
14041;BME280;7095;51.388;6.196;2023-01-25T00:14:22;55175.44;;;-145.32;100.00
14041;BME280;7095;51.388;6.196;2023-01-25T00:16:51;55209.25;;;-145.32;100.00
14041;BME280;7095;51.388;6.196;2023-01-25T00:19:20;55149.59;;;-145.32;100.00
14041;BME280;7095;51.388;6.196;2023-01-25T00:21:49;55197.34;;;-145.32;100.00
14041;BME280;7095;51.388;6.196;2023-01-25T00:24:18;55197.34;;;-145.32;100.00
14041;BME280;7095;51.388;6.196;2023-01-25T00:26:49;55201.31;;;-145.32;100.00
14041;BME280;7095;51.388;6.196;2023-01-25T00:29:19;55209.25;;;-145.32;100.00
14041;BME280;7095;51.388;6.196;2023-01-25T00:31:57;55199.31;;;-145.32;100.00
14041;BME280;7095;51.388;6.196;2023-01-25T00:34:44;55165.50;;;-145.32;100.00
14041;BME280;7095;51.388;6.196;2023-01-25T00:37:18;55149.59;;;-145.32;100.00
14041;BME280;7095;51.388;6.196;2023-01-25T00:39:48;55217.22;;;-145.32;100.00
14041;BME280;7095;51.388;6.196;2023-01-25T00:42:17;55167.50;;;-145.32;100.00
14041;BME280;7095;51.388;6.196;2023-01-25T00:44:48;55191.38;;;-145.32;100.00
14041;BME280;7095;51.388;6.196;2023-01-25T00:47:19;55143.63;;;-145.32;100.00
14041;BME280;7095;51.388;6.196;2023-01-25T00:49:47;55167.50;;;-145.32;100.00
14041;BME280;7095;51.388;6.196;2023-01-25T00:52:16;55221.19;;;-145.32;100.00
14041;BME280;7095;51.388;6.196;2023-01-25T00:54:44;55241.09;;;-145.32;100.00
14041;BME280;7095;51.388;6.196;2023-01-25T00:57:12;55219.22;;;-145.32;100.00
14041;BME280;7095;51.388;6.196;2023-01-25T00:59:41;55209.25;;;-145.32;100.00
14041;BME280;7095;51.388;6.196;2023-01-25T01:02:14;55197.34;;;-145.32;100.00
14041;BME280;7095;51.388;6.196;2023-01-25T01:04:42;55165.50;;;-145.32;100.00
14041;BME280;7095;51.388;6.196;2023-01-25T01:07:12;55181.41;;;-145.32;100.00
14041;BME280;7095;51.388;6.196;2023-01-25T01:09:41;55169.50;;;-145.32;100.00
14041;BME280;7095;51.388;6.196;2023-01-25T01:12:10;55145.63;;;-145.32;100.00
14041;BME280;7095;51.388;6.196;2023-01-25T01:14:38;55175.44;;;-145.32;100.00
14041;BME280;7095;51.388;6.196;2023-01-25T01:17:07;55185.41;;;-145.32;100.00
14041;BME280;7095;51.388;6.196;2023-01-25T01:19:37;55177.44;;;-145.32;100.00
14041;BME280;7095;51.388;6.196;2023-01-25T01:22:06;55141.63;;;-145.32;100.00
14041;BME280;7095;51.388;6.196;2023-01-25T01:24:34;55173.47;;;-145.32;100.00
14041;BME280;7095;51.388;6.196;2023-01-25T01:27:03;55241.09;;;-145.32;100.00
14041;BME280;7095;51.388;6.196;2023-01-25T01:29:32;55209.25;;;-145.32;100.00
14041;BME280;7095;51.388;6.196;2023-01-25T01:32:00;55260.97;;;-145.32;100.00
14041;BME280;7095;51.388;6.196;2023-01-25T01:34:29;55147.59;;;-145.32;100.00
14041;BME280;7095;51.388;6.196;2023-01-25T01:36:59;55161.53;;;-145.32;100.00
14041;BME280;7095;51.388;6.196;2023-01-25T01:39:27;55215.22;;;-145.32;100.00
14041;BME280;7095;51.388;6.196;2023-01-25T01:41:56;55205.28;;;-145.32;100.00
14041;BME280;7095;51.388;6.196;2023-01-25T01:44:42;55253.03;;;-145.32;100.00
14041;BME280;7095;51.388;6.196;2023-01-25T01:47:16;55235.13;;;-145.32;100.00
14041;BME280;7095;51.388;6.196;2023-01-25T01:49:54;55231.16;;;-145.32;100.00
14041;BME280;7095;51.388;6.196;2023-01-25T01:52:31;55233.13;;;-145.32;100.00
14041;BME280;7095;51.388;6.196;2023-01-25T01:55:03;55239.09;;;-145.32;100.00
14041;BME280;7095;51.388;6.196;2023-01-25T01:57:38;55129.69;;;-145.32;100.00
14041;BME280;7095;51.388;6.196;2023-01-25T02:00:13;55227.16;;;-145.32;100.00
14041;BME280;7095;51.388;6.196;2023-01-25T02:02:45;55233.13;;;-145.32;100.00
14041;BME280;7095;51.388;6.196;2023-01-25T02:05:18;55115.78;;;-145.32;100.00
14041;BME280;7095;51.388;6.196;2023-01-25T02:07:51;55018.31;;;-145.32;100.00
14041;BME280;7095;51.388;6.196;2023-01-25T02:10:24;54944.72;;;-145.32;100.00
14041;BME280;7095;51.388;6.196;2023-01-25T02:12:55;55004.41;;;-145.32;100.00
14041;BME280;7095;51.388;6.196;2023-01-25T02:15:27;55115.78;;;-145.32;100.00
14041;BME280;7095;51.388;6.196;2023-01-25T02:18:01;55129.69;;;-145.32;100.00
14041;BME280;7095;51.388;6.196;2023-01-25T02:20:35;55173.47;;;-145.32;100.00
14041;BME280;7095;51.388;6.196;2023-01-25T02:23:11;55215.22;;;-145.32;100.00
14041;BME280;7095;51.388;6.196;2023-01-25T02:25:46;55235.13;;;-145.32;100.00
14041;BME280;7095;51.388;6.196;2023-01-25T02:28:20;55215.22;;;-145.32;100.00
14041;BME280;7095;51.388;6.196;2023-01-25T02:30:50;55253.03;;;-145.32;100.00
14041;BME280;7095;51.388;6.196;2023-01-25T02:33:21;55237.13;;;-145.32;100.00
14041;BME280;7095;51.388;6.196;2023-01-25T02:35:57;55253.03;;;-145.32;100.00
14041;BME280;7095;51.388;6.196;2023-01-25T02:38:28;55272.91;;;-145.32;100.00
14041;BME280;7095;51.388;6.196;2023-01-25T02:41:03;55262.97;;;-145.32;100.00
14041;BME280;7095;51.388;6.196;2023-01-25T02:43:34;55274.91;;;-145.32;100.00
14041;BME280;7095;51.388;6.196;2023-01-25T02:46:17;55262.97;;;-145.32;100.00
14041;BME280;7095;51.388;6.196;2023-01-25T02:48:49;55253.03;;;-145.32;100.00
14041;BME280;7095;51.388;6.196;2023-01-25T02:51:18;55346.50;;;-145.32;100.00
14041;BME280;7095;51.388;6.196;2023-01-25T02:53:47;55336.56;;;-145.32;100.00
14041;BME280;7095;51.388;6.196;2023-01-25T02:56:17;55376.34;;;-145.32;100.00
14041;BME280;7095;51.388;6.196;2023-01-25T02:58:47;55422.09;;;-145.32;100.00
14041;BME280;7095;51.388;6.196;2023-01-25T03:01:17;55392.25;;;-145.32;100.00
14041;BME280;7095;51.388;6.196;2023-01-25T03:03:46;55372.38;;;-145.32;100.00
14041;BME280;7095;51.388;6.196;2023-01-25T03:06:16;55312.69;;;-145.32;100.00
14041;BME280;7095;51.388;6.196;2023-01-25T03:08:45;55257.00;;;-145.32;100.00
14041;BME280;7095;51.388;6.196;2023-01-25T03:11:14;55292.81;;;-145.32;100.00
14041;BME280;7095;51.388;6.196;2023-01-25T03:13:45;55336.56;;;-145.32;100.00
14041;BME280;7095;51.388;6.196;2023-01-25T03:16:13;55318.66;;;-145.32;100.00
14041;BME280;7095;51.388;6.196;2023-01-25T03:18:43;55380.34;;;-145.32;100.00
14041;BME280;7095;51.388;6.196;2023-01-25T03:21:14;55382.31;;;-145.32;100.00
14041;BME280;7095;51.388;6.196;2023-01-25T03:23:44;55364.41;;;-145.32;100.00
14041;BME280;7095;51.388;6.196;2023-01-25T03:26:20;55336.56;;;-145.32;100.00
14041;BME280;7095;51.388;6.196;2023-01-25T03:29:11;55382.31;;;-145.32;100.00
14041;BME280;7095;51.388;6.196;2023-01-25T03:31:42;55358.44;;;-145.32;100.00
14041;BME280;7095;51.388;6.196;2023-01-25T03:34:11;55392.25;;;-145.32;100.00
14041;BME280;7095;51.388;6.196;2023-01-25T03:36:41;55346.50;;;-145.32;100.00
14041;BME280;7095;51.388;6.196;2023-01-25T03:39:11;55416.13;;;-145.32;100.00
14041;BME280;7095;51.388;6.196;2023-01-25T03:41:42;55453.94;;;-145.32;100.00
14041;BME280;7095;51.388;6.196;2023-01-25T03:44:14;55483.78;;;-145.32;100.00
14041;BME280;7095;51.388;6.196;2023-01-25T03:46:45;55404.19;;;-145.32;100.00
14041;BME280;7095;51.388;6.196;2023-01-25T03:49:14;55422.09;;;-145.32;100.00
14041;BME280;7095;51.388;6.196;2023-01-25T03:51:45;55386.28;;;-145.32;100.00
14041;BME280;7095;51.388;6.196;2023-01-25T03:54:14;55440.00;;;-145.32;100.00
14041;BME280;7095;51.388;6.196;2023-01-25T03:56:43;55434.03;;;-145.32;100.00
14041;BME280;7095;51.388;6.196;2023-01-25T03:59:19;55527.53;;;-145.32;100.00
14041;BME280;7095;51.388;6.196;2023-01-25T04:01:48;55412.16;;;-145.32;100.00
14041;BME280;7095;51.388;6.196;2023-01-25T04:04:18;55426.09;;;-145.32;100.00
14041;BME280;7095;51.388;6.196;2023-01-25T04:06:47;55455.91;;;-145.32;100.00
14041;BME280;7095;51.388;6.196;2023-01-25T04:09:16;55447.97;;;-145.32;100.00
14041;BME280;7095;51.388;6.196;2023-01-25T04:11:50;55447.97;;;-145.32;100.00
14041;BME280;7095;51.388;6.196;2023-01-25T04:14:20;55467.84;;;-145.32;100.00
14041;BME280;7095;51.388;6.196;2023-01-25T04:17:09;55503.66;;;-145.32;100.00
14041;BME280;7095;51.388;6.196;2023-01-25T04:19:41;55442.00;;;-145.32;100.00
14041;BME280;7095;51.388;6.196;2023-01-25T04:22:13;55463.88;;;-145.32;100.00
14041;BME280;7095;51.388;6.196;2023-01-25T04:24:42;55479.78;;;-145.32;100.00
14041;BME280;7095;51.388;6.196;2023-01-25T04:27:11;55398.22;;;-145.32;100.00
14041;BME280;7095;51.388;6.196;2023-01-25T04:29:52;55324.63;;;-145.32;100.00
14041;BME280;7095;51.388;6.196;2023-01-25T04:32:22;55406.19;;;-145.32;100.00
14041;BME280;7095;51.388;6.196;2023-01-25T04:34:52;55360.44;;;-145.32;100.00
14041;BME280;7095;51.388;6.196;2023-01-25T04:37:23;55412.16;;;-145.32;100.00
14041;BME280;7095;51.388;6.196;2023-01-25T04:39:56;55497.69;;;-145.32;100.00
14041;BME280;7095;51.388;6.196;2023-01-25T04:42:27;55449.94;;;-145.32;100.00
14041;BME280;7095;51.388;6.196;2023-01-25T04:44:57;55501.66;;;-145.32;100.00
14041;BME280;7095;51.388;6.196;2023-01-25T04:47:26;55479.78;;;-145.32;100.00
14041;BME280;7095;51.388;6.196;2023-01-25T04:49:55;55459.91;;;-145.32;100.00
14041;BME280;7095;51.388;6.196;2023-01-25T04:52:27;55420.13;;;-145.32;100.00
14041;BME280;7095;51.388;6.196;2023-01-25T04:54:56;55408.19;;;-145.32;100.00
14041;BME280;7095;51.388;6.196;2023-01-25T04:57:24;55364.41;;;-145.32;100.00
14041;BME280;7095;51.388;6.196;2023-01-25T04:59:53;55185.41;;;-145.32;100.00
14041;BME280;7095;51.388;6.196;2023-01-25T05:02:25;55127.72;;;-145.32;100.00
14041;BME280;7095;51.388;6.196;2023-01-25T05:04:54;55133.69;;;-145.32;100.00
14041;BME280;7095;51.388;6.196;2023-01-25T05:07:23;55217.22;;;-145.32;100.00
14041;BME280;7095;51.388;6.196;2023-01-25T05:09:54;55304.75;;;-145.32;100.00
14041;BME280;7095;51.388;6.196;2023-01-25T05:12:24;55354.47;;;-145.32;100.00
14041;BME280;7095;51.388;6.196;2023-01-25T05:14:57;55348.50;;;-145.32;100.00
14041;BME280;7095;51.388;6.196;2023-01-25T05:17:27;55372.38;;;-145.32;100.00
14041;BME280;7095;51.388;6.196;2023-01-25T05:19:55;55418.13;;;-145.32;100.00
14041;BME280;7095;51.388;6.196;2023-01-25T05:22:24;55392.25;;;-145.32;100.00
14041;BME280;7095;51.388;6.196;2023-01-25T05:24:52;55392.25;;;-145.32;100.00
14041;BME280;7095;51.388;6.196;2023-01-25T05:27:23;55412.16;;;-145.32;100.00
14041;BME280;7095;51.388;6.196;2023-01-25T05:29:55;55414.16;;;-145.32;100.00
14041;BME280;7095;51.388;6.196;2023-01-25T05:32:43;55424.09;;;-145.32;100.00
14041;BME280;7095;51.388;6.196;2023-01-25T05:35:12;55485.75;;;-145.32;100.00
14041;BME280;7095;51.388;6.196;2023-01-25T05:37:42;55424.09;;;-145.32;100.00
14041;BME280;7095;51.388;6.196;2023-01-25T05:40:17;55368.41;;;-145.32;100.00
14041;BME280;7095;51.388;6.196;2023-01-25T05:42:52;55308.72;;;-145.32;100.00
14041;BME280;7095;51.388;6.196;2023-01-25T05:45:23;55284.84;;;-145.32;100.00
14041;BME280;7095;51.388;6.196;2023-01-25T05:47:55;55372.38;;;-145.32;100.00
14041;BME280;7095;51.388;6.196;2023-01-25T05:50:25;55424.09;;;-145.32;100.00
14041;BME280;7095;51.388;6.196;2023-01-25T05:53:02;55422.09;;;-145.32;100.00
14041;BME280;7095;51.388;6.196;2023-01-25T05:55:30;55342.53;;;-145.32;100.00
14041;BME280;7095;51.388;6.196;2023-01-25T05:58:03;55414.16;;;-145.32;100.00
14041;BME280;7095;51.388;6.196;2023-01-25T06:00:32;55489.75;;;-145.32;100.00
14041;BME280;7095;51.388;6.196;2023-01-25T06:03:02;55495.69;;;-145.32;100.00
14041;BME280;7095;51.388;6.196;2023-01-25T06:05:34;55465.88;;;-145.32;100.00
14041;BME280;7095;51.388;6.196;2023-01-25T06:08:03;55499.69;;;-145.32;100.00
14041;BME280;7095;51.388;6.196;2023-01-25T06:10:45;55509.63;;;-145.32;100.00
14041;BME280;7095;51.388;6.196;2023-01-25T06:13:13;55451.94;;;-145.32;100.00
14041;BME280;7095;51.388;6.196;2023-01-25T06:15:48;55489.75;;;-145.32;100.00
14041;BME280;7095;51.388;6.196;2023-01-25T06:18:51;55513.59;;;-145.32;100.00
14041;BME280;7095;51.388;6.196;2023-01-25T06:21:30;55503.66;;;-145.32;100.00
14041;BME280;7095;51.388;6.196;2023-01-25T06:23:59;55436.03;;;-145.32;100.00
14041;BME280;7095;51.388;6.196;2023-01-25T06:26:28;55451.94;;;-145.32;100.00
14041;BME280;7095;51.388;6.196;2023-01-25T06:28:56;55515.59;;;-145.32;100.00
14041;BME280;7095;51.388;6.196;2023-01-25T06:31:24;55527.53;;;-145.32;100.00
14041;BME280;7095;51.388;6.196;2023-01-25T06:33:55;55531.50;;;-145.32;100.00
14041;BME280;7095;51.388;6.196;2023-01-25T06:36:26;55559.34;;;-145.32;100.00
14041;BME280;7095;51.388;6.196;2023-01-25T06:38:55;55440.00;;;-145.32;100.00
14041;BME280;7095;51.388;6.196;2023-01-25T06:41:23;55489.75;;;-145.32;100.00
14041;BME280;7095;51.388;6.196;2023-01-25T06:43:52;55567.31;;;-145.32;100.00
14041;BME280;7095;51.388;6.196;2023-01-25T06:46:21;55517.59;;;-145.32;100.00
14041;BME280;7095;51.388;6.196;2023-01-25T06:48:50;55553.41;;;-145.32;100.00
14041;BME280;7095;51.388;6.196;2023-01-25T06:51:20;55368.41;;;-145.32;100.00
14041;BME280;7095;51.388;6.196;2023-01-25T06:53:48;55272.91;;;-145.32;100.00
14041;BME280;7095;51.388;6.196;2023-01-25T06:56:18;55342.53;;;-145.32;100.00
14041;BME280;7095;51.388;6.196;2023-01-25T06:58:48;55272.91;;;-145.32;100.00
14041;BME280;7095;51.388;6.196;2023-01-25T07:01:18;55416.13;;;-145.32;100.00
14041;BME280;7095;51.388;6.196;2023-01-25T07:03:48;55384.31;;;-145.32;100.00
14041;BME280;7095;51.388;6.196;2023-01-25T07:06:17;55380.34;;;-145.32;100.00
14041;BME280;7095;51.388;6.196;2023-01-25T07:08:47;55380.34;;;-145.32;100.00
14041;BME280;7095;51.388;6.196;2023-01-25T07:11:16;55447.97;;;-145.32;100.00
14041;BME280;7095;51.388;6.196;2023-01-25T07:13:46;55475.81;;;-145.32;100.00
14041;BME280;7095;51.388;6.196;2023-01-25T07:16:16;55288.84;;;-145.32;100.00
14041;BME280;7095;51.388;6.196;2023-01-25T07:18:46;55388.28;;;-145.32;100.00
14041;BME280;7095;51.388;6.196;2023-01-25T07:21:16;55467.84;;;-145.32;100.00
14041;BME280;7095;51.388;6.196;2023-01-25T07:23:48;55455.91;;;-145.32;100.00
14041;BME280;7095;51.388;6.196;2023-01-25T07:26:19;55479.78;;;-145.32;100.00
14041;BME280;7095;51.388;6.196;2023-01-25T07:28:48;55340.56;;;-145.32;100.00
14041;BME280;7095;51.388;6.196;2023-01-25T07:31:18;55260.97;;;-145.32;100.00
14041;BME280;7095;51.388;6.196;2023-01-25T07:33:47;55364.41;;;-145.32;100.00
14041;BME280;7095;51.388;6.196;2023-01-25T07:36:16;55348.50;;;-145.32;100.00
14041;BME280;7095;51.388;6.196;2023-01-25T07:38:45;55440.00;;;-145.32;100.00
14041;BME280;7095;51.388;6.196;2023-01-25T07:41:15;55525.53;;;-145.32;100.00
14041;BME280;7095;51.388;6.196;2023-01-25T07:43:44;55527.53;;;-145.32;100.00
14041;BME280;7095;51.388;6.196;2023-01-25T07:46:19;55469.84;;;-145.32;100.00
14041;BME280;7095;51.388;6.196;2023-01-25T07:48:51;55412.16;;;-145.32;100.00
14041;BME280;7095;51.388;6.196;2023-01-25T07:51:21;55428.06;;;-145.32;100.00
14041;BME280;7095;51.388;6.196;2023-01-25T07:53:51;55380.34;;;-145.32;100.00
14041;BME280;7095;51.388;6.196;2023-01-25T07:56:23;55396.25;;;-145.32;100.00
14041;BME280;7095;51.388;6.196;2023-01-25T07:58:52;55366.41;;;-145.32;100.00
14041;BME280;7095;51.388;6.196;2023-01-25T08:01:23;55457.91;;;-145.32;100.00
14041;BME280;7095;51.388;6.196;2023-01-25T08:03:54;55583.22;;;-145.32;100.00
14041;BME280;7095;51.388;6.196;2023-01-25T08:06:24;55527.53;;;-145.32;100.00
14041;BME280;7095;51.388;6.196;2023-01-25T08:08:57;55559.34;;;-145.32;100.00
14041;BME280;7095;51.388;6.196;2023-01-25T08:11:29;55569.31;;;-145.32;100.00
14041;BME280;7095;51.388;6.196;2023-01-25T08:13:58;55567.31;;;-145.32;100.00
14041;BME280;7095;51.388;6.196;2023-01-25T08:16:30;55619.03;;;-145.32;100.00
14041;BME280;7095;51.388;6.196;2023-01-25T08:19:00;55603.13;;;-145.32;100.00
14041;BME280;7095;51.388;6.196;2023-01-25T08:21:31;55523.56;;;-145.32;100.00
14041;BME280;7095;51.388;6.196;2023-01-25T08:24:03;55559.34;;;-145.32;100.00
14041;BME280;7095;51.388;6.196;2023-01-25T08:26:34;55581.25;;;-145.32;100.00
14041;BME280;7095;51.388;6.196;2023-01-25T08:29:03;55589.19;;;-145.32;100.00
14041;BME280;7095;51.388;6.196;2023-01-25T08:31:33;55575.28;;;-145.32;100.00
14041;BME280;7095;51.388;6.196;2023-01-25T08:34:04;55551.41;;;-145.32;100.00
14041;BME280;7095;51.388;6.196;2023-01-25T08:36:36;55627.00;;;-145.32;100.00
14041;BME280;7095;51.388;6.196;2023-01-25T08:39:07;55662.81;;;-145.32;100.00
14041;BME280;7095;51.388;6.196;2023-01-25T08:41:37;55702.59;;;-145.32;100.00
14041;BME280;7095;51.388;6.196;2023-01-25T08:44:06;55674.75;;;-145.32;100.00
14041;BME280;7095;51.388;6.196;2023-01-25T08:46:35;55632.97;;;-145.32;100.00
14041;BME280;7095;51.388;6.196;2023-01-25T08:49:04;55666.78;;;-145.32;100.00
14041;BME280;7095;51.388;6.196;2023-01-25T08:51:33;55603.13;;;-145.32;100.00
14041;BME280;7095;51.388;6.196;2023-01-25T08:54:03;55406.19;;;-145.32;100.00
14041;BME280;7095;51.388;6.196;2023-01-25T08:56:32;55455.91;;;-145.32;100.00
14041;BME280;7095;51.388;6.196;2023-01-25T08:59:02;55539.47;;;-145.32;100.00
14041;BME280;7095;51.388;6.196;2023-01-25T09:01:32;55535.50;;;-145.32;100.00
14041;BME280;7095;51.388;6.196;2023-01-25T09:04:01;55507.63;;;-145.32;100.00
14041;BME280;7095;51.388;6.196;2023-01-25T09:06:33;55547.44;;;-145.32;100.00
14041;BME280;7095;51.388;6.196;2023-01-25T09:09:02;55519.56;;;-145.32;100.00
14041;BME280;7095;51.388;6.196;2023-01-25T09:11:33;55467.84;;;-145.32;100.00
14041;BME280;7095;51.388;6.196;2023-01-25T09:14:05;55515.59;;;-145.32;100.00
14041;BME280;7095;51.388;6.196;2023-01-25T09:16:34;55597.16;;;-145.32;100.00
14041;BME280;7095;51.388;6.196;2023-01-25T09:19:03;55563.34;;;-145.32;100.00
14041;BME280;7095;51.388;6.196;2023-01-25T09:21:33;55595.16;;;-145.32;100.00
14041;BME280;7095;51.388;6.196;2023-01-25T09:24:04;55573.28;;;-145.32;100.00
14041;BME280;7095;51.388;6.196;2023-01-25T09:26:39;55561.34;;;-145.32;100.00
14041;BME280;7095;51.388;6.196;2023-01-25T09:29:17;55579.25;;;-145.32;100.00
14041;BME280;7095;51.388;6.196;2023-01-25T09:31:46;55656.84;;;-145.32;100.00
14041;BME280;7095;51.388;6.196;2023-01-25T09:34:27;55443.97;;;-145.32;100.00
14041;BME280;7095;51.388;6.196;2023-01-25T09:36:57;55412.16;;;-145.32;100.00
14041;BME280;7095;51.388;6.196;2023-01-25T09:39:26;55332.59;;;-145.32;100.00
14041;BME280;7095;51.388;6.196;2023-01-25T09:42:07;55219.22;;;-145.32;100.00
14041;BME280;7095;51.388;6.196;2023-01-25T09:44:53;55292.81;;;-145.32;100.00
14041;BME280;7095;51.388;6.196;2023-01-25T09:47:29;55324.63;;;-145.32;100.00
14041;BME280;7095;51.388;6.196;2023-01-25T09:50:15;55213.25;;;-145.32;100.00
14041;BME280;7095;51.388;6.196;2023-01-25T09:53:04;55320.66;;;-145.32;100.00
14041;BME280;7095;51.388;6.196;2023-01-25T09:55:38;55241.09;;;-145.32;100.00
14041;BME280;7095;51.388;6.196;2023-01-25T09:58:12;55274.91;;;-145.32;100.00
14041;BME280;7095;51.388;6.196;2023-01-25T10:00:49;55272.91;;;-145.32;100.00
14041;BME280;7095;51.388;6.196;2023-01-25T10:03:21;55159.53;;;-145.32;100.00
14041;BME280;7095;51.388;6.196;2023-01-25T10:05:52;55227.16;;;-145.32;100.00
14041;BME280;7095;51.388;6.196;2023-01-25T10:08:26;55209.25;;;-145.32;100.00
14041;BME280;7095;51.388;6.196;2023-01-25T10:11:00;55177.44;;;-145.32;100.00
14041;BME280;7095;51.388;6.196;2023-01-25T10:13:32;55197.34;;;-145.32;100.00
14041;BME280;7095;51.388;6.196;2023-01-25T10:16:04;55225.19;;;-145.32;100.00
14041;BME280;7095;51.388;6.196;2023-01-25T10:18:53;55211.25;;;-145.32;100.00
14041;BME280;7095;51.388;6.196;2023-01-25T10:21:26;55316.69;;;-145.32;100.00
14041;BME280;7095;51.388;6.196;2023-01-25T10:24:11;55282.88;;;-145.32;100.00
14041;BME280;7095;51.388;6.196;2023-01-25T10:26:49;55193.34;;;-145.32;100.00
14041;BME280;7095;51.388;6.196;2023-01-25T10:29:21;55113.78;;;-145.32;100.00
14041;BME280;7095;51.388;6.196;2023-01-25T10:31:53;55129.69;;;-145.32;100.00
14041;BME280;7095;51.388;6.196;2023-01-25T10:34:26;55137.66;;;-145.32;100.00
14041;BME280;7095;51.388;6.196;2023-01-25T10:37:02;55149.59;;;-145.32;100.00
14041;BME280;7095;51.388;6.196;2023-01-25T10:39:31;55225.19;;;-145.32;100.00
14041;BME280;7095;51.388;6.196;2023-01-25T10:42:08;55044.19;;;-145.32;100.00
14041;BME280;7095;51.388;6.196;2023-01-25T10:44:39;55179.44;;;-145.32;100.00
14041;BME280;7095;51.388;6.196;2023-01-25T10:47:14;55215.22;;;-145.32;100.00
14041;BME280;7095;51.388;6.196;2023-01-25T10:49:46;55169.50;;;-145.32;100.00
14041;BME280;7095;51.388;6.196;2023-01-25T10:52:17;55145.63;;;-145.32;100.00
14041;BME280;7095;51.388;6.196;2023-01-25T10:54:46;55081.97;;;-145.32;100.00
14041;BME280;7095;51.388;6.196;2023-01-25T10:57:18;55072.03;;;-145.32;100.00
14041;BME280;7095;51.388;6.196;2023-01-25T10:59:49;55167.50;;;-145.32;100.00
14041;BME280;7095;51.388;6.196;2023-01-25T11:02:44;55089.94;;;-145.32;100.00
14041;BME280;7095;51.388;6.196;2023-01-25T11:05:31;55249.06;;;-145.32;100.00
14041;BME280;7095;51.388;6.196;2023-01-25T11:08:21;55129.69;;;-145.32;100.00
14041;BME280;7095;51.388;6.196;2023-01-25T11:10:49;55072.03;;;-145.32;100.00
14041;BME280;7095;51.388;6.196;2023-01-25T11:13:22;55161.53;;;-145.32;100.00
14041;BME280;7095;51.388;6.196;2023-01-25T11:15:53;55177.44;;;-145.32;100.00
14041;BME280;7095;51.388;6.196;2023-01-25T11:18:27;55121.75;;;-145.32;100.00
14041;BME280;7095;51.388;6.196;2023-01-25T11:21:06;55149.59;;;-145.32;100.00
14041;BME280;7095;51.388;6.196;2023-01-25T11:23:34;55207.28;;;-145.32;100.00
14041;BME280;7095;51.388;6.196;2023-01-25T11:26:15;55298.78;;;-145.32;100.00
14041;BME280;7095;51.388;6.196;2023-01-25T11:28:45;55324.63;;;-145.32;100.00
14041;BME280;7095;51.388;6.196;2023-01-25T11:31:19;55249.06;;;-145.32;100.00
14041;BME280;7095;51.388;6.196;2023-01-25T11:33:49;55364.41;;;-145.32;100.00
14041;BME280;7095;51.388;6.196;2023-01-25T11:36:24;55410.16;;;-145.32;100.00
14041;BME280;7095;51.388;6.196;2023-01-25T11:39:07;55257.00;;;-145.32;100.00
14041;BME280;7095;51.388;6.196;2023-01-25T11:41:54;55125.72;;;-145.32;100.00
14041;BME280;7095;51.388;6.196;2023-01-25T11:44:51;54974.56;;;-145.32;100.00
14041;BME280;7095;51.388;6.196;2023-01-25T11:47:37;55111.81;;;-145.32;100.00
14041;BME280;7095;51.388;6.196;2023-01-25T11:50:14;55163.53;;;-145.32;100.00
14041;BME280;7095;51.388;6.196;2023-01-25T11:53:01;55097.88;;;-145.32;100.00
14041;BME280;7095;51.388;6.196;2023-01-25T11:55:37;55163.53;;;-145.32;100.00
14041;BME280;7095;51.388;6.196;2023-01-25T11:58:23;55095.88;;;-145.32;100.00
14041;BME280;7095;51.388;6.196;2023-01-25T12:01:05;55201.31;;;-145.32;100.00
14041;BME280;7095;51.388;6.196;2023-01-25T12:03:57;55257.00;;;-145.32;100.00
14041;BME280;7095;51.388;6.196;2023-01-25T12:06:41;55209.25;;;-145.32;100.00
14041;BME280;7095;51.388;6.196;2023-01-25T12:09:22;55225.19;;;-145.32;100.00
14041;BME280;7095;51.388;6.196;2023-01-25T12:12:05;55346.50;;;-145.32;100.00
14041;BME280;7095;51.388;6.196;2023-01-25T12:14:49;55308.72;;;-145.32;100.00
14041;BME280;7095;51.388;6.196;2023-01-25T12:17:37;55322.66;;;-145.32;100.00
14041;BME280;7095;51.388;6.196;2023-01-25T12:20:23;55264.97;;;-145.32;100.00
14041;BME280;7095;51.388;6.196;2023-01-25T12:23:23;55141.63;;;-145.32;100.00
14041;BME280;7095;51.388;6.196;2023-01-25T12:26:06;55056.13;;;-145.32;100.00
14041;BME280;7095;51.388;6.196;2023-01-25T12:28:41;55171.47;;;-145.32;100.00
14041;BME280;7095;51.388;6.196;2023-01-25T12:31:16;55070.03;;;-145.32;100.00
14041;BME280;7095;51.388;6.196;2023-01-25T12:33:50;55133.69;;;-145.32;100.00
14041;BME280;7095;51.388;6.196;2023-01-25T12:36:23;55241.09;;;-145.32;100.00
14041;BME280;7095;51.388;6.196;2023-01-25T12:38:58;55217.22;;;-145.32;100.00
14041;BME280;7095;51.388;6.196;2023-01-25T12:41:37;55274.91;;;-145.32;100.00
14041;BME280;7095;51.388;6.196;2023-01-25T12:44:13;55292.81;;;-145.32;100.00
14041;BME280;7095;51.388;6.196;2023-01-25T12:46:51;55183.41;;;-145.32;100.00
14041;BME280;7095;51.388;6.196;2023-01-25T12:49:27;55229.16;;;-145.32;100.00
14041;BME280;7095;51.388;6.196;2023-01-25T12:52:00;55231.16;;;-145.32;100.00
14041;BME280;7095;51.388;6.196;2023-01-25T12:54:37;55229.16;;;-145.32;100.00
14041;BME280;7095;51.388;6.196;2023-01-25T12:57:14;55241.09;;;-145.32;100.00
14041;BME280;7095;51.388;6.196;2023-01-25T12:59:52;55316.69;;;-145.32;100.00
14041;BME280;7095;51.388;6.196;2023-01-25T13:05:21;55300.75;;;-145.32;100.00
14041;BME280;7095;51.388;6.196;2023-01-25T13:08:00;55342.53;;;-145.32;100.00
14041;BME280;7095;51.388;6.196;2023-01-25T13:10:41;55300.75;;;-145.32;100.00
14041;BME280;7095;51.388;6.196;2023-01-25T13:13:23;55326.63;;;-145.32;100.00